Time;durP1;ratioP1;P1;durP2;ratioP2;P2;SDS_P1;SDS_P2;PMS_P1;PMS_P2;Temp;Humidity;BMP_temperature;BMP_pressure;BME280_temperature;BME280_humidity;BME280_pressure;Samples;Min_cycle;Max_cycle;Signal;HPM_P1;HPM_P2
2023/05/17 00:02:04;;;;;;;0.10;0.10;;;10.40;99.90;;;;;;5133298;28;20110;-75
2023/05/17 00:04:30;;;;;;;0.10;0.10;;;10.40;99.90;;;;;;5133279;28;20462;-75
2023/05/17 00:06:55;;;;;;;0.00;0.00;;;10.70;99.90;;;;;;5133063;28;20544;-74
2023/05/17 00:09:21;;;;;;;0.05;0.05;;;10.80;99.90;;;;;;5133303;28;20015;-73
2023/05/17 00:11:47;;;;;;;0.28;0.28;;;10.70;99.90;;;;;;5133363;28;20459;-75
2023/05/17 00:14:12;;;;;;;0.10;0.10;;;10.20;99.90;;;;;;5133164;28;20072;-75
2023/05/17 00:16:38;;;;;;;0.10;0.10;;;9.80;99.90;;;;;;5125737;28;20024;-73
2023/05/17 00:19:04;;;;;;;0.10;0.10;;;9.70;99.90;;;;;;5126469;28;20033;-75
2023/05/17 00:21:30;;;;;;;0.10;0.10;;;9.60;99.90;;;;;;5133072;28;20023;-75
2023/05/17 00:23:55;;;;;;;0.00;0.00;;;9.80;99.90;;;;;;5132961;28;20041;-75
2023/05/17 00:26:21;;;;;;;0.10;0.10;;;10.10;99.90;;;;;;5134055;27;20038;-74
2023/05/17 00:28:47;;;;;;;0.50;0.17;;;10.40;99.90;;;;;;5118935;27;20015;-75
2023/05/17 00:31:13;;;;;;;0.10;0.10;;;10.20;99.90;;;;;;5118553;27;20143;-76
2023/05/17 00:33:39;;;;;;;0.10;0.10;;;10.00;99.90;;;;;;5136785;27;20142;-74
2023/05/17 00:36:05;;;;;;;0.10;0.10;;;10.10;99.90;;;;;;5118531;27;20031;-75
2023/05/17 00:38:30;;;;;;;0.10;0.10;;;9.90;99.90;;;;;;5136558;27;20102;-75
2023/05/17 00:40:56;;;;;;;0.20;0.20;;;9.80;99.90;;;;;;5136748;27;20031;-75
2023/05/17 00:43:24;;;;;;;0.77;0.77;;;9.70;99.90;;;;;;5136524;27;20038;-73
2023/05/17 00:45:51;;;;;;;0.17;0.17;;;9.70;99.90;;;;;;5136707;27;20027;-76
2023/05/17 00:48:19;;;;;;;0.15;0.15;;;9.50;99.90;;;;;;5136295;27;20034;-74
2023/05/17 00:50:46;;;;;;;2.97;1.05;;;9.40;99.90;;;;;;5136702;27;20096;-74
2023/05/17 00:53:15;;;;;;;0.20;0.20;;;9.50;99.90;;;;;;5117603;27;20046;-75
2023/05/17 00:55:44;;;;;;;0.30;0.30;;;9.50;99.90;;;;;;5118178;27;20555;-74
2023/05/17 00:58:14;;;;;;;1.75;1.10;;;9.50;99.90;;;;;;5136426;27;20049;-72
2023/05/17 01:00:40;;;;;;;0.10;0.10;;;9.50;99.90;;;;;;5136481;27;20099;-75
2023/05/17 01:03:06;;;;;;;0.10;0.10;;;9.60;99.90;;;;;;5136276;27;20031;-69
2023/05/17 01:05:32;;;;;;;0.00;0.00;;;9.60;99.90;;;;;;5136197;27;20027;-69
2023/05/17 01:07:57;;;;;;;0.10;0.10;;;9.50;99.90;;;;;;5136303;27;20026;-69
2023/05/17 01:10:32;;;;;;;0.10;0.10;;;9.50;99.90;;;;;;5117775;27;20455;-69
2023/05/17 01:13:22;;;;;;;0.20;0.20;;;9.60;99.90;;;;;;5136077;27;20019;-70
2023/05/17 01:16:04;;;;;;;0.10;0.10;;;9.30;99.90;;;;;;5135207;27;20111;-70
2023/05/17 01:19:13;;;;;;;0.10;0.10;;;9.30;99.90;;;;;;5106213;27;20041;-74
2023/05/17 01:22:18;;;;;;;0.55;0.55;;;9.40;99.90;;;;;;5090095;27;20288;-75
2023/05/17 01:25:11;;;;;;;0.55;0.55;;;9.20;99.90;;;;;;5120928;27;20089;-75
2023/05/17 01:27:40;;;;;;;0.10;0.10;;;9.10;99.90;;;;;;5135963;27;20039;-74
2023/05/17 01:30:08;;;;;;;0.10;0.10;;;9.20;99.90;;;;;;5135748;27;20116;-74
2023/05/17 01:32:35;;;;;;;0.20;0.20;;;9.60;99.90;;;;;;5135934;27;20027;-75
2023/05/17 01:35:04;;;;;;;0.08;0.08;;;9.70;99.90;;;;;;5116977;27;20150;-73
2023/05/17 01:37:30;;;;;;;0.15;0.15;;;9.70;99.90;;;;;;5135087;27;20023;-73
2023/05/17 01:39:55;;;;;;;0.00;0.00;;;9.80;99.90;;;;;;5116546;27;20377;-75
2023/05/17 01:42:28;;;;;;;0.00;0.00;;;9.60;99.90;;;;;;5135585;27;20035;-74
2023/05/17 01:45:17;;;;;;;0.60;0.60;;;9.70;99.90;;;;;;5116797;27;20031;-74
2023/05/17 01:48:27;;;;;;;0.10;0.10;;;9.40;99.90;;;;;;5135423;27;20023;-74
2023/05/17 01:50:56;;;;;;;0.05;0.05;;;9.70;99.90;;;;;;5116597;27;20372;-75
2023/05/17 01:53:49;;;;;;;0.10;0.10;;;9.70;99.90;;;;;;5123210;27;20024;-75
2023/05/17 01:56:20;;;;;;;5.93;2.65;;;9.50;99.90;;;;;;5114698;28;20382;-74
2023/05/17 01:58:47;;;;;;;0.10;0.10;;;9.40;99.90;;;;;;5096242;28;20055;-74
2023/05/17 02:01:18;;;;;;;0.10;0.10;;;9.30;99.90;;;;;;5114692;28;20090;-74
2023/05/17 02:03:48;;;;;;;0.10;0.10;;;9.10;99.90;;;;;;5114327;28;20490;-74
2023/05/17 02:06:14;;;;;;;0.30;0.30;;;9.10;99.90;;;;;;5114645;28;20034;-74
2023/05/17 02:08:40;;;;;;;0.10;0.10;;;9.10;99.90;;;;;;5096406;28;20015;-74
2023/05/17 02:11:06;;;;;;;0.10;0.10;;;9.00;99.90;;;;;;5114588;28;20426;-75
2023/05/17 02:13:32;;;;;;;0.10;0.10;;;9.10;99.90;;;;;;5114582;28;20023;-75
2023/05/17 02:16:02;;;;;;;0.10;0.10;;;9.10;99.90;;;;;;5096323;28;20472;-74
2023/05/17 02:18:27;;;;;;;0.10;0.10;;;9.00;99.90;;;;;;5114181;28;20028;-75
2023/05/17 02:20:53;;;;;;;0.10;0.10;;;8.90;99.90;;;;;;5096151;28;20563;-75
2023/05/17 02:23:20;;;;;;;0.10;0.10;;;9.10;99.90;;;;;;5114152;28;20058;-75
2023/05/17 02:25:46;;;;;;;0.10;0.10;;;9.20;99.90;;;;;;5079177;28;20150;-75
2023/05/17 02:28:11;;;;;;;0.10;0.10;;;9.40;99.90;;;;;;5114230;28;20039;-71
2023/05/17 02:30:40;;;;;;;0.00;0.00;;;9.50;99.90;;;;;;5113878;28;20521;-70
2023/05/17 02:33:07;;;;;;;0.10;0.10;;;9.60;99.90;;;;;;5095710;28;20069;-69
2023/05/17 02:35:33;;;;;;;1.88;0.63;;;9.60;99.90;;;;;;5095452;28;20028;-69
2023/05/17 02:37:59;;;;;;;0.10;0.10;;;9.60;99.90;;;;;;5095914;28;20537;-69
2023/05/17 02:40:25;;;;;;;0.00;0.00;;;9.50;99.90;;;;;;5113774;28;20028;-70
2023/05/17 02:42:50;;;;;;;0.10;0.10;;;9.90;99.90;;;;;;5113479;28;20410;-70
2023/05/17 02:45:16;;;;;;;0.03;0.03;;;9.80;99.90;;;;;;5113755;28;20047;-70
2023/05/17 02:47:42;;;;;;;0.08;0.08;;;9.80;99.90;;;;;;5113458;28;20030;-70
2023/05/17 02:50:08;;;;;;;0.10;0.10;;;9.60;99.90;;;;;;5113399;28;20069;-70
2023/05/17 02:52:34;;;;;;;1.08;1.08;;;9.60;99.90;;;;;;5095321;28;20020;-71
2023/05/17 02:55:01;;;;;;;0.10;0.10;;;9.60;99.90;;;;;;5095572;28;20110;-69
2023/05/17 02:57:27;;;;;;;3.00;1.70;;;9.60;99.90;;;;;;5113505;28;20540;-70
2023/05/17 02:59:53;;;;;;;0.75;0.75;;;9.60;99.90;;;;;;5095247;28;20487;-70
2023/05/17 03:02:19;;;;;;;7.65;1.85;;;9.50;99.90;;;;;;5094577;28;20035;-70
2023/05/17 03:04:45;;;;;;;0.17;0.17;;;9.40;99.90;;;;;;5095045;28;20031;-70
2023/05/17 03:07:11;;;;;;;0.10;0.10;;;9.40;99.90;;;;;;5095467;28;20114;-69
2023/05/17 03:09:38;;;;;;;0.03;0.03;;;9.30;99.90;;;;;;5078580;28;20024;-70
2023/05/17 03:12:05;;;;;;;0.10;0.10;;;9.40;99.90;;;;;;5113409;28;20031;-69
2023/05/17 03:14:32;;;;;;;0.35;0.35;;;9.50;99.90;;;;;;5095015;28;20057;-70
2023/05/17 03:16:58;;;;;;;0.10;0.10;;;9.50;99.90;;;;;;5094505;28;20020;-70
2023/05/17 03:19:24;;;;;;;0.30;0.30;;;9.70;99.90;;;;;;5095375;28;20059;-70
2023/05/17 03:21:51;;;;;;;2.08;1.98;;;9.70;99.90;;;;;;5094917;28;20027;-69
2023/05/17 03:24:17;;;;;;;0.85;0.85;;;9.50;99.90;;;;;;5094871;28;20114;-69
2023/05/17 03:26:43;;;;;;;2.53;1.20;;;9.50;99.90;;;;;;5094879;28;20114;-70
2023/05/17 03:29:11;;;;;;;0.00;0.00;;;9.40;99.90;;;;;;5095031;28;20023;-69
2023/05/17 03:31:39;;;;;;;0.13;0.13;;;9.50;99.90;;;;;;5094496;28;20048;-73
2023/05/17 03:34:05;;;;;;;0.90;0.90;;;9.50;99.90;;;;;;5095229;28;20463;-73
2023/05/17 03:36:33;;;;;;;0.10;0.10;;;9.50;99.90;;;;;;5094723;28;20030;-71
2023/05/17 03:38:59;;;;;;;0.10;0.10;;;9.50;99.90;;;;;;5094844;28;20027;-72
2023/05/17 03:41:25;;;;;;;0.10;0.10;;;9.50;99.90;;;;;;5077700;28;20530;-69
2023/05/17 03:43:51;;;;;;;0.75;0.75;;;9.50;99.90;;;;;;5112896;28;20024;-69
2023/05/17 03:46:18;;;;;;;17.98;2.20;;;9.50;99.90;;;;;;5094331;28;20464;-71
2023/05/17 03:48:46;;;;;;;0.10;0.10;;;9.60;99.90;;;;;;5094880;28;20472;-69
2023/05/17 03:51:12;;;;;;;0.65;0.65;;;9.60;99.90;;;;;;5095207;28;20111;-68
2023/05/17 03:53:42;;;;;;;0.10;0.10;;;9.70;99.90;;;;;;5094577;28;20027;-68
2023/05/17 03:56:09;;;;;;;0.30;0.30;;;9.70;99.90;;;;;;5094447;28;20072;-68
2023/05/17 03:58:35;;;;;;;0.10;0.10;;;9.70;99.90;;;;;;5094242;28;20388;-68
2023/05/17 04:01:02;;;;;;;3.72;1.85;;;9.80;99.90;;;;;;5093930;28;20023;-68
2023/05/17 04:03:29;;;;;;;0.00;0.00;;;9.80;99.90;;;;;;5098211;28;20369;-68
2023/05/17 04:06:05;;;;;;;0.00;0.00;;;10.00;99.90;;;;;;5098653;28;20031;-68
2023/05/17 04:08:32;;;;;;;0.35;0.35;;;10.00;99.90;;;;;;5098171;28;20031;-69
2023/05/17 04:11:00;;;;;;;0.93;0.82;;;10.00;99.90;;;;;;5098721;28;20028;-69
2023/05/17 04:13:26;;;;;;;1.35;0.90;;;9.90;99.90;;;;;;5098001;28;20024;-70
2023/05/17 04:15:53;;;;;;;0.30;0.30;;;9.80;99.90;;;;;;5098040;28;20024;-68
2023/05/17 04:18:18;;;;;;;0.10;0.10;;;9.70;99.90;;;;;;5116500;28;20035;-68
2023/05/17 04:20:44;;;;;;;0.20;0.20;;;9.70;99.90;;;;;;5116572;28;20031;-68
2023/05/17 04:23:10;;;;;;;1.08;0.35;;;9.70;99.90;;;;;;5098232;28;20032;-71
2023/05/17 04:25:36;;;;;;;1.85;0.73;;;9.80;99.90;;;;;;5098033;28;20383;-69
2023/05/17 04:28:02;;;;;;;0.20;0.20;;;9.80;99.90;;;;;;5097873;28;20026;-68
2023/05/17 04:30:28;;;;;;;0.10;0.10;;;9.80;99.90;;;;;;5097831;28;20456;-68
2023/05/17 04:32:54;;;;;;;0.90;0.90;;;9.90;99.90;;;;;;5097970;28;20075;-68
2023/05/17 04:35:21;;;;;;;0.10;0.10;;;10.00;99.90;;;;;;5097908;28;20483;-69
2023/05/17 04:37:50;;;;;;;0.00;0.00;;;10.00;99.90;;;;;;5097832;28;20031;-69
2023/05/17 04:40:21;;;;;;;0.10;0.10;;;10.10;99.90;;;;;;5097953;28;20367;-71
2023/05/17 04:42:47;;;;;;;0.35;0.35;;;10.20;99.90;;;;;;5097666;28;20027;-72
2023/05/17 04:45:13;;;;;;;0.00;0.00;;;10.30;99.90;;;;;;5115825;28;20388;-69
2023/05/17 04:47:39;;;;;;;0.15;0.15;;;10.40;99.90;;;;;;5115771;28;20496;-69
2023/05/17 04:50:05;;;;;;;0.20;0.20;;;10.40;99.90;;;;;;5097838;28;20384;-68
2023/05/17 04:52:31;;;;;;;0.10;0.10;;;10.40;99.90;;;;;;5097692;28;20039;-69
2023/05/17 04:54:57;;;;;;;5.50;0.95;;;10.30;99.90;;;;;;5097552;28;20110;-69
2023/05/17 04:57:23;;;;;;;0.10;0.10;;;10.40;99.90;;;;;;5097546;28;20125;-69
2023/05/17 04:59:54;;;;;;;0.20;0.20;;;10.80;99.90;;;;;;5097583;28;20353;-70
2023/05/17 05:02:20;;;;;;;0.20;0.20;;;11.00;99.90;;;;;;5097602;28;20023;-70
2023/05/17 05:04:46;;;;;;;0.00;0.00;;;11.10;99.90;;;;;;5097115;28;20146;-69
2023/05/17 05:07:13;;;;;;;0.40;0.40;;;11.00;99.90;;;;;;5115790;28;20342;-68
2023/05/17 05:09:39;;;;;;;0.10;0.10;;;10.90;99.90;;;;;;5097206;28;20493;-68
2023/05/17 05:12:08;;;;;;;0.00;0.00;;;11.10;99.90;;;;;;5097115;28;20030;-71
2023/05/17 05:14:35;;;;;;;6.82;2.00;;;11.30;99.90;;;;;;5097347;28;20389;-71
2023/05/17 05:17:01;;;;;;;6.25;1.17;;;11.30;99.90;;;;;;5097054;28;20027;-69
2023/05/17 05:19:27;;;;;;;0.00;0.00;;;11.40;99.90;;;;;;5097272;28;20027;-69
2023/05/17 05:21:54;;;;;;;2.42;0.52;;;11.50;99.90;;;;;;5096806;28;20498;-69
2023/05/17 05:24:20;;;;;;;4.13;0.80;;;11.50;99.90;;;;;;5097073;28;20023;-69
2023/05/17 05:26:46;;;;;;;0.10;0.10;;;11.60;99.90;;;;;;5096666;28;20152;-69
2023/05/17 05:29:14;;;;;;;0.08;0.08;;;11.70;99.90;;;;;;5096958;28;20472;-69
2023/05/17 05:31:40;;;;;;;0.10;0.10;;;11.80;99.90;;;;;;5115097;28;20039;-69
2023/05/17 05:34:08;;;;;;;0.90;0.90;;;11.80;99.90;;;;;;5096681;28;20221;-70
2023/05/17 05:36:34;;;;;;;0.55;0.32;;;11.50;99.90;;;;;;5096992;28;20024;-69
2023/05/17 05:39:00;;;;;;;1.00;0.45;;;11.40;99.90;;;;;;5096780;28;20027;-70
2023/05/17 05:41:28;;;;;;;0.20;0.20;;;11.40;99.90;;;;;;5096233;28;20027;-69
2023/05/17 05:43:55;;;;;;;0.40;0.40;;;11.40;99.90;;;;;;5096710;28;20031;-69
2023/05/17 05:46:20;;;;;;;3.80;1.13;;;11.40;99.90;;;;;;5115084;28;20357;-71
2023/05/17 05:48:47;;;;;;;2.75;0.65;;;11.40;99.90;;;;;;5096589;28;20446;-70
2023/05/17 05:51:13;;;;;;;0.10;0.10;;;11.50;99.90;;;;;;5096673;28;20062;-73
2023/05/17 05:53:42;;;;;;;0.38;0.38;;;11.80;99.90;;;;;;5080053;28;20019;-74
2023/05/17 05:56:08;;;;;;;0.15;0.15;;;12.20;99.90;;;;;;5114259;28;20426;-73
2023/05/17 05:58:34;;;;;;;0.00;0.00;;;12.30;99.90;;;;;;5096422;28;20028;-73
2023/05/17 06:01:02;;;;;;;0.68;0.52;;;12.80;99.90;;;;;;5096187;28;20023;-74
2023/05/17 06:03:28;;;;;;;0.03;0.03;;;12.40;99.90;;;;;;5114483;28;20114;-73
2023/05/17 06:05:54;;;;;;;0.10;0.10;;;12.40;99.90;;;;;;5096273;28;20043;-70
2023/05/17 06:08:20;;;;;;;0.30;0.30;;;12.40;99.90;;;;;;5114493;28;20046;-71
2023/05/17 06:10:46;;;;;;;4.05;1.27;;;12.30;99.90;;;;;;5095889;28;20024;-72
2023/05/17 06:13:12;;;;;;;0.20;0.20;;;12.20;99.90;;;;;;5096063;28;20115;-72
2023/05/17 06:15:37;;;;;;;0.77;0.77;;;12.30;99.90;;;;;;5114502;28;20433;-72
2023/05/17 06:18:03;;;;;;;0.75;0.57;;;12.20;99.90;;;;;;5114286;28;20051;-70
2023/05/17 06:20:29;;;;;;;31.20;1.92;;;11.90;99.90;;;;;;5114403;28;20522;-74
2023/05/17 06:22:55;;;;;;;1.23;1.10;;;11.70;99.90;;;;;;5096048;28;20028;-71
2023/05/17 06:25:20;;;;;;;0.63;0.63;;;11.70;99.90;;;;;;5113219;28;20059;-73
2023/05/17 06:27:46;;;;;;;0.55;0.38;;;11.90;99.90;;;;;;5114104;28;20061;-75
2023/05/17 06:30:12;;;;;;;0.10;0.10;;;11.80;99.90;;;;;;5113707;28;20020;-69
2023/05/17 06:32:38;;;;;;;0.10;0.10;;;11.80;99.90;;;;;;5114173;28;20023;-70
2023/05/17 06:35:05;;;;;;;2.10;0.98;;;12.10;99.90;;;;;;5095616;28;20024;-73
2023/05/17 06:37:31;;;;;;;2.35;1.55;;;12.30;99.90;;;;;;5114092;28;20032;-72
2023/05/17 06:40:05;;;;;;;0.00;0.00;;;12.30;99.90;;;;;;5113554;28;20096;-73
2023/05/17 06:42:32;;;;;;;0.20;0.20;;;12.40;99.90;;;;;;5114229;28;20035;-69
2023/05/17 06:44:58;;;;;;;1.35;1.25;;;12.50;99.90;;;;;;5095535;28;20032;-69
2023/05/17 06:47:24;;;;;;;0.47;0.30;;;12.70;99.90;;;;;;5113707;28;20051;-69
2023/05/17 06:49:49;;;;;;;3.35;1.58;;;12.80;99.90;;;;;;5113859;28;20066;-68
2023/05/17 06:52:15;;;;;;;0.10;0.10;;;12.80;99.90;;;;;;5113518;28;20024;-68
2023/05/17 06:54:41;;;;;;;0.10;0.10;;;12.90;99.90;;;;;;5113424;28;20026;-69
2023/05/17 06:57:08;;;;;;;2.10;1.90;;;13.10;99.90;;;;;;5113709;28;20023;-69
2023/05/17 06:59:35;;;;;;;0.28;0.28;;;13.40;99.90;;;;;;5113514;28;20097;-71
2023/05/17 07:02:01;;;;;;;0.57;0.57;;;13.70;99.90;;;;;;5095063;28;20437;-69
2023/05/17 07:04:27;;;;;;;0.13;0.13;;;13.70;99.90;;;;;;5113722;28;20032;-69
2023/05/17 07:06:52;;;;;;;0.10;0.10;;;13.50;99.90;;;;;;5113207;28;20057;-69
2023/05/17 07:09:20;;;;;;;1.40;1.30;;;13.80;99.90;;;;;;5113335;28;20023;-69
2023/05/17 07:11:46;;;;;;;0.00;0.00;;;13.50;99.90;;;;;;5113690;28;20083;-68
2023/05/17 07:14:12;;;;;;;4.00;2.53;;;13.20;99.90;;;;;;5113428;28;20159;-68
2023/05/17 07:16:38;;;;;;;0.10;0.10;;;13.10;99.90;;;;;;5113355;28;20494;-69
2023/05/17 07:19:04;;;;;;;0.00;0.00;;;13.40;99.90;;;;;;5113416;28;20019;-70
2023/05/17 07:21:30;;;;;;;0.10;0.10;;;13.70;99.90;;;;;;5113011;28;20151;-69
2023/05/17 07:23:56;;;;;;;0.60;0.40;;;13.90;99.90;;;;;;5113045;28;20035;-70
2023/05/17 07:26:22;;;;;;;0.10;0.10;;;14.20;99.90;;;;;;5113185;28;20036;-70
2023/05/17 07:28:48;;;;;;;0.55;0.55;;;14.30;99.90;;;;;;5112995;28;20026;-69
2023/05/17 07:31:14;;;;;;;1.13;0.57;;;14.30;99.90;;;;;;5113449;28;20059;-69
2023/05/17 07:33:40;;;;;;;0.20;0.20;;;14.20;99.90;;;;;;5112988;28;20062;-69
2023/05/17 07:36:06;;;;;;;0.20;0.20;;;14.30;99.90;;;;;;5113843;28;20098;-69
2023/05/17 07:38:35;;;;;;;0.45;0.45;;;14.20;99.90;;;;;;5117118;28;20472;-68
2023/05/17 07:41:01;;;;;;;0.50;0.43;;;13.70;99.90;;;;;;5098852;28;20031;-69
2023/05/17 07:43:27;;;;;;;0.30;0.30;;;13.50;99.90;;;;;;5099079;28;20058;-69
2023/05/17 07:45:53;;;;;;;0.32;0.32;;;13.20;99.90;;;;;;5117054;28;20027;-71
2023/05/17 07:48:19;;;;;;;1.80;1.08;;;13.40;99.90;;;;;;5117231;28;20035;-69
2023/05/17 07:50:45;;;;;;;0.85;0.85;;;13.50;99.90;;;;;;5117136;28;20107;-68
2023/05/17 07:53:11;;;;;;;6.90;1.27;;;13.90;99.90;;;;;;5116796;28;20027;-69
2023/05/17 07:55:37;;;;;;;0.10;0.10;;;13.80;99.90;;;;;;5098618;28;20039;-68
2023/05/17 07:58:03;;;;;;;0.32;0.32;;;13.80;99.90;;;;;;5116807;28;20024;-69
2023/05/17 08:00:29;;;;;;;0.20;0.20;;;14.10;99.90;;;;;;5117152;28;20046;-69
2023/05/17 08:02:55;;;;;;;0.65;0.50;;;14.20;99.90;;;;;;5116674;28;20052;-75
2023/05/17 08:05:21;;;;;;;0.00;0.00;;;14.40;99.90;;;;;;5116822;28;20032;-69
2023/05/17 08:07:47;;;;;;;5.05;0.98;;;14.40;99.90;;;;;;5116677;28;20029;-75
2023/05/17 08:10:14;;;;;;;0.40;0.30;;;14.50;99.90;;;;;;5098616;28;20475;-73
2023/05/17 08:12:39;;;;;;;0.88;0.38;;;14.70;99.90;;;;;;5116504;28;20468;-75
2023/05/17 08:15:06;;;;;;;3.47;0.35;;;15.10;99.90;;;;;;5116806;28;20019;-71
2023/05/17 08:17:32;;;;;;;0.00;0.00;;;15.50;99.90;;;;;;5116744;28;20446;-75
2023/05/17 08:19:57;;;;;;;1.33;1.02;;;15.60;99.90;;;;;;5116580;28;20123;-74
2023/05/17 08:22:23;;;;;;;0.00;0.00;;;15.90;99.90;;;;;;5116467;28;20114;-76
2023/05/17 08:24:50;;;;;;;0.10;0.10;;;16.20;99.90;;;;;;5116239;28;20040;-70
2023/05/17 08:27:15;;;;;;;5.68;0.40;;;16.00;99.90;;;;;;5116446;28;20084;-74
2023/05/17 08:29:41;;;;;;;0.22;0.22;;;15.80;99.90;;;;;;5098331;28;20031;-76
2023/05/17 08:32:07;;;;;;;0.57;0.57;;;15.90;99.90;;;;;;5116201;28;20103;-75
2023/05/17 08:34:33;;;;;;;1.25;0.60;;;16.00;99.90;;;;;;5116322;28;20032;-74
2023/05/17 08:36:59;;;;;;;0.15;0.15;;;15.80;99.90;;;;;;5116020;28;20049;-76
2023/05/17 08:39:24;;;;;;;0.38;0.35;;;15.80;99.90;;;;;;5116275;28;20376;-76
2023/05/17 08:41:50;;;;;;;6.40;0.65;;;15.90;99.90;;;;;;5097832;28;20110;-76
2023/05/17 08:44:16;;;;;;;0.00;0.00;;;15.80;99.90;;;;;;5115801;28;20031;-74
2023/05/17 08:46:43;;;;;;;0.00;0.00;;;16.10;99.90;;;;;;5115910;28;20035;-76
2023/05/17 08:49:13;;;;;;;1.08;0.98;;;16.40;99.90;;;;;;5115629;28;20020;-74
2023/05/17 08:51:41;;;;;;;0.40;0.20;;;16.60;99.90;;;;;;5115951;28;20036;-73
2023/05/17 08:54:07;;;;;;;1.02;0.98;;;16.40;99.00;;;;;;5115743;28;20088;-73
2023/05/17 08:56:38;;;;;;;0.10;0.10;;;16.30;99.60;;;;;;5116246;28;20035;-75
2023/05/17 08:59:07;;;;;;;0.45;0.45;;;16.30;99.30;;;;;;5115569;28;20114;-76
2023/05/17 09:01:33;;;;;;;0.10;0.10;;;16.60;99.60;;;;;;5115673;28;20491;-72
2023/05/17 09:03:59;;;;;;;0.00;0.00;;;16.90;99.60;;;;;;5115557;28;20077;-75
2023/05/17 09:06:25;;;;;;;0.43;0.43;;;17.00;99.70;;;;;;5115669;28;20028;-73
2023/05/17 09:08:57;;;;;;;1.02;0.43;;;17.40;99.10;;;;;;5115726;28;20047;-72
2023/05/17 09:11:32;;;;;;;0.10;0.10;;;17.50;99.60;;;;;;5115484;28;20027;-74
2023/05/17 09:13:59;;;;;;;5.63;1.55;;;17.10;98.50;;;;;;5115528;28;20495;-73
2023/05/17 09:16:28;;;;;;;2.25;0.50;;;16.30;98.10;;;;;;5115736;28;20019;-75
2023/05/17 09:18:55;;;;;;;0.00;0.00;;;16.70;99.90;;;;;;5115119;28;20076;-74
2023/05/17 09:21:22;;;;;;;0.00;0.00;;;17.20;99.90;;;;;;5115553;28;20027;-70
2023/05/17 09:23:50;;;;;;;3.65;1.13;;;17.10;98.20;;;;;;5097007;28;20047;-74
2023/05/17 09:26:17;;;;;;;0.00;0.00;;;17.30;98.70;;;;;;5115394;28;20040;-73
2023/05/17 09:28:43;;;;;;;1.60;0.52;;;17.60;98.60;;;;;;5115244;28;20022;-75
2023/05/17 09:31:12;;;;;;;0.20;0.20;;;17.70;98.00;;;;;;5115375;28;20027;-74
2023/05/17 09:33:48;;;;;;;0.00;0.00;;;17.80;97.80;;;;;;5114952;28;20039;-74
2023/05/17 09:36:21;;;;;;;0.25;0.25;;;17.10;98.60;;;;;;5115290;28;20031;-76
2023/05/17 09:38:53;;;;;;;2.50;0.75;;;17.60;98.30;;;;;;5115059;28;20395;-71
2023/05/17 09:41:20;;;;;;;;;;;18.00;97.50;;;;;;5115398;28;20024;-75
2023/05/17 09:43:47;;;;;;;1.50;0.75;;;18.10;98.00;;;;;;5115135;28;20444;-74
2023/05/17 09:46:14;;;;;;;0.30;0.30;;;17.90;98.20;;;;;;5114896;28;20479;-72
2023/05/17 09:48:42;;;;;;;0.00;0.00;;;17.90;97.60;;;;;;5114746;28;20016;-72
2023/05/17 09:51:08;;;;;;;0.10;0.10;;;17.80;98.20;;;;;;5114690;28;20041;-74
2023/05/17 09:53:38;;;;;;;0.00;0.00;;;17.80;98.10;;;;;;5114818;28;20460;-72
2023/05/17 09:56:08;;;;;;;0.47;0.47;;;17.60;97.50;;;;;;5114505;28;20552;-72
2023/05/17 09:58:36;;;;;;;1.27;1.15;;;17.80;97.00;;;;;;5114372;28;20035;-73
2023/05/17 10:01:05;;;;;;;0.00;0.00;;;17.50;97.00;;;;;;5096525;28;20028;-69
2023/05/17 10:03:35;;;;;;;0.00;0.00;;;17.30;97.90;;;;;;5114312;28;20084;-69
2023/05/17 10:06:05;;;;;;;5.50;0.85;;;17.90;97.00;;;;;;5114529;28;20046;-69
2023/05/17 10:08:32;;;;;;;3.35;1.20;;;18.30;96.40;;;;;;5115023;28;20012;-69
2023/05/17 10:11:07;;;;;;;0.55;0.13;;;18.40;95.30;;;;;;5096192;28;20392;-69
2023/05/17 10:13:48;;;;;;;1.02;0.65;;;18.40;97.20;;;;;;5114283;28;20065;-70
2023/05/17 10:16:14;;;;;;;0.73;0.30;;;18.50;96.10;;;;;;5114327;28;20064;-68
2023/05/17 10:18:40;;;;;;;0.85;0.13;;;18.10;96.00;;;;;;5114081;28;20027;-69
2023/05/17 10:21:07;;;;;;;0.00;0.00;;;18.30;95.40;;;;;;5114336;28;20420;-70
2023/05/17 10:23:34;;;;;;;4.40;1.65;;;18.70;96.40;;;;;;5113921;28;20031;-70
2023/05/17 10:26:00;;;;;;;11.93;0.90;;;18.90;93.40;;;;;;5114124;28;20093;-69
2023/05/17 10:28:27;;;;;;;0.00;0.00;;;18.60;95.10;;;;;;5113966;28;20492;-69
2023/05/17 10:30:54;;;;;;;6.13;0.65;;;18.80;93.90;;;;;;5114074;28;20047;-69
2023/05/17 10:33:23;;;;;;;0.10;0.10;;;18.80;94.10;;;;;;5113854;28;20063;-70
2023/05/17 10:35:50;;;;;;;3.10;1.45;;;19.10;94.70;;;;;;5113890;28;20027;-70
2023/05/17 10:38:17;;;;;;;0.00;0.00;;;19.50;94.80;;;;;;5095835;28;20024;-69
2023/05/17 10:40:44;;;;;;;0.98;0.82;;;20.00;94.50;;;;;;5113477;28;20039;-69
2023/05/17 10:43:11;;;;;;;1.45;0.93;;;20.00;93.20;;;;;;5114195;28;20111;-71
2023/05/17 10:45:40;;;;;;;0.00;0.00;;;19.60;93.00;;;;;;5113447;28;20070;-69
2023/05/17 10:48:06;;;;;;;0.00;0.00;;;19.60;93.50;;;;;;5114191;28;20476;-69
2023/05/17 10:50:36;;;;;;;0.32;0.10;;;19.80;92.60;;;;;;5095160;28;20080;-69
2023/05/17 10:53:06;;;;;;;1.02;0.22;;;20.00;92.30;;;;;;5113470;28;20032;-70
2023/05/17 10:55:42;;;;;;;0.20;0.20;;;19.90;92.10;;;;;;5095162;28;20150;-75
2023/05/17 10:58:15;;;;;;;0.00;0.00;;;19.90;92.30;;;;;;5113434;28;20027;-73
2023/05/17 11:00:45;;;;;;;0.10;0.10;;;20.10;92.40;;;;;;5112968;28;20106;-74
2023/05/17 11:03:27;;;;;;;4.13;1.17;;;20.40;91.50;;;;;;5113231;28;20566;-75
2023/05/17 11:06:26;;;;;;;0.00;0.00;;;19.80;90.90;;;;;;5113538;28;20077;-75
2023/05/17 11:09:15;;;;;;;0.20;0.20;;;19.80;91.10;;;;;;5113514;28;20106;-75
2023/05/17 11:12:03;;;;;;;5.85;1.50;;;19.30;90.80;;;;;;5112629;28;20028;-73
2023/05/17 11:14:44;;;;;;;0.00;0.00;;;19.50;91.60;;;;;;5113154;28;20392;-73
2023/05/17 11:17:20;;;;;;;0.05;0.05;;;19.50;90.90;;;;;;5113751;28;20038;-73
2023/05/17 11:20:01;;;;;;;3.83;1.20;;;19.80;91.70;;;;;;5113327;28;20028;-71
2023/05/17 11:22:32;;;;;;;0.05;0.05;;;19.60;90.30;;;;;;5113201;28;20106;-74
2023/05/17 11:25:00;;;;;;;0.93;0.22;;;19.50;91.40;;;;;;5113088;28;20043;-75
2023/05/17 11:27:34;;;;;;;1.13;0.38;;;19.60;90.40;;;;;;5113142;28;20476;-73
2023/05/17 11:30:09;;;;;;;0.20;0.20;;;20.00;90.80;;;;;;5112943;28;20024;-75
2023/05/17 11:32:35;;;;;;;2.97;1.08;;;20.00;91.40;;;;;;5113159;28;20036;-75
2023/05/17 11:35:01;;;;;;;0.20;0.20;;;20.20;90.50;;;;;;5113207;28;20024;-75
2023/05/17 11:37:30;;;;;;;1.88;0.15;;;20.50;90.90;;;;;;5112840;28;20035;-75
2023/05/17 11:40:07;;;;;;;0.00;0.00;;;20.60;91.40;;;;;;5113189;28;20020;-74
2023/05/17 11:42:34;;;;;;;0.75;0.30;;;20.80;89.50;;;;;;5094664;28;20059;-75
2023/05/17 11:45:01;;;;;;;0.00;0.00;;;20.90;90.60;;;;;;5112832;28;20031;-75
2023/05/17 11:47:27;;;;;;;2.60;0.70;;;21.00;88.90;;;;;;5112952;28;20096;-75
2023/05/17 11:49:55;;;;;;;0.15;0.03;;;20.80;88.60;;;;;;5113084;28;20028;-75
2023/05/17 11:52:21;;;;;;;0.30;0.13;;;21.10;88.30;;;;;;5112924;28;20365;-75
2023/05/17 11:54:48;;;;;;;0.00;0.00;;;20.90;86.30;;;;;;5113038;28;20388;-75
2023/05/17 11:57:16;;;;;;;0.75;0.38;;;20.80;87.70;;;;;;5113005;28;20069;-75
2023/05/17 11:59:43;;;;;;;0.10;0.10;;;20.70;87.70;;;;;;5094608;28;20036;-75
2023/05/17 12:02:09;;;;;;;1.25;0.20;;;21.00;86.90;;;;;;5112825;28;20029;-75
2023/05/17 12:04:36;;;;;;;0.00;0.00;;;20.90;86.30;;;;;;5112782;28;20019;-75
2023/05/17 12:07:03;;;;;;;0.30;0.30;;;20.90;87.10;;;;;;5094463;28;20472;-75
2023/05/17 12:09:29;;;;;;;0.10;0.10;;;21.20;86.80;;;;;;5113017;28;20020;-74
2023/05/17 12:11:55;;;;;;;1.92;0.55;;;21.30;86.60;;;;;;5112478;28;20590;-75
2023/05/17 12:14:21;;;;;;;6.45;0.52;;;21.30;86.70;;;;;;5112562;28;20119;-75
2023/05/17 12:16:55;;;;;;;0.65;0.32;;;21.50;84.70;;;;;;5112758;28;20107;-75
2023/05/17 12:19:23;;;;;;;1.08;0.45;;;21.10;86.30;;;;;;5112652;28;20035;-75
2023/05/17 12:21:50;;;;;;;0.30;0.30;;;21.30;86.90;;;;;;5112732;28;20016;-75
2023/05/17 12:24:16;;;;;;;0.00;0.00;;;21.60;86.20;;;;;;5116745;28;20104;-74
2023/05/17 12:26:44;;;;;;;0.38;0.10;;;21.80;85.50;;;;;;5116273;28;20042;-75
2023/05/17 12:29:10;;;;;;;1.13;1.00;;;22.10;85.40;;;;;;5116156;28;20024;-75
2023/05/17 12:31:42;;;;;;;0.98;0.50;;;22.40;84.60;;;;;;5116454;28;20026;-75
2023/05/17 12:34:11;;;;;;;0.00;0.00;;;22.50;84.20;;;;;;5116600;28;20016;-76
2023/05/17 12:36:37;;;;;;;0.00;0.00;;;22.30;85.30;;;;;;5116533;28;20031;-76
2023/05/17 12:39:05;;;;;;;4.07;0.47;;;21.90;85.70;;;;;;5116138;28;20024;-76
2023/05/17 12:41:31;;;;;;;0.30;0.10;;;21.00;85.20;;;;;;5115884;28;20034;-75
2023/05/17 12:43:57;;;;;;;0.10;0.10;;;20.90;85.70;;;;;;5116130;28;20030;-75
2023/05/17 12:46:23;;;;;;;0.00;0.00;;;21.20;86.40;;;;;;5116366;28;20032;-75
2023/05/17 12:48:50;;;;;;;1.02;0.70;;;21.50;85.90;;;;;;5116024;28;20055;-75
2023/05/17 12:51:20;;;;;;;1.85;0.65;;;22.00;87.60;;;;;;5116091;28;20051;-75
2023/05/17 12:53:50;;;;;;;0.22;0.22;;;21.80;86.00;;;;;;5097638;28;20030;-72
2023/05/17 12:56:22;;;;;;;3.17;0.88;;;20.90;87.10;;;;;;5115930;28;20024;-73